Time;durP1;ratioP1;P1;durP2;ratioP2;P2;SDS_P1;SDS_P2;PMS_P1;PMS_P2;Temp;Humidity;BMP_temperature;BMP_pressure;BME280_temperature;BME280_humidity;BME280_pressure;Samples;Min_cycle;Max_cycle;Signal;HPM_P1;HPM_P2
2021/05/14 00:01:48;;;;;;;9.70;8.65;;;;;;;13.02;81.49;95044.13;1754930;82;20950;-83
2021/05/14 00:04:14;;;;;;;10.53;9.15;;;;;;;12.98;81.39;95042.97;1728574;80;20942;-82
2021/05/14 00:06:39;;;;;;;10.10;9.10;;;;;;;12.93;81.35;95043.67;1725120;80;20970;-83
2021/05/14 00:09:05;;;;;;;12.03;8.55;;;;;;;12.99;81.56;95045.06;1725713;82;20954;-82
2021/05/14 00:11:32;;;;;;;9.85;8.83;;;;;;;12.94;81.39;95047.06;1750941;82;21331;-83
2021/05/14 00:13:59;;;;;;;10.82;9.08;;;;;;;12.95;81.41;95046.05;1740229;80;21073;-83
2021/05/14 00:16:25;;;;;;;12.03;10.20;;;;;;;12.99;81.46;95047.16;1725478;80;21351;-82
2021/05/14 00:18:51;;;;;;;11.63;10.25;;;;;;;13.00;81.58;95044.05;1730593;82;21030;-83
2021/05/14 00:21:17;;;;;;;14.25;9.08;;;;;;;13.03;81.50;95044.91;1739667;80;21021;-82
2021/05/14 00:23:43;;;;;;;10.53;9.43;;;;;;;13.07;81.59;95041.61;1725104;80;21302;-82
2021/05/14 00:26:08;;;;;;;8.95;8.10;;;;;;;13.03;81.26;95041.80;1731969;80;21271;-82
2021/05/14 00:28:34;;;;;;;10.68;9.35;;;;;;;13.00;81.23;95034.41;1740282;80;20950;-82
2021/05/14 00:31:00;;;;;;;9.30;8.30;;;;;;;13.03;81.40;95043.09;1726580;80;21302;-83
2021/05/14 00:33:25;;;;;;;10.93;8.48;;;;;;;13.05;81.38;95044.96;1725204;82;20972;-83
2021/05/14 00:35:51;;;;;;;8.90;8.00;;;;;;;13.06;81.40;95041.33;1743273;80;21001;-82
2021/05/14 00:38:17;;;;;;;9.10;7.97;;;;;;;13.07;81.38;95044.73;1729401;80;21262;-82
2021/05/14 00:40:43;;;;;;;8.15;7.37;;;;;;;13.05;81.40;95042.87;1725016;80;20966;-82
2021/05/14 00:43:08;;;;;;;6.90;6.25;;;;;;;13.02;81.24;95044.13;1724968;82;20945;-82
2021/05/14 00:45:34;;;;;;;9.08;8.05;;;;;;;13.04;81.25;95047.80;1725492;80;20970;-82
2021/05/14 00:48:00;;;;;;;8.38;6.90;;;;;;;12.99;81.36;95046.37;1743814;82;21299;-82
2021/05/14 00:50:26;;;;;;;8.28;7.35;;;;;;;12.96;81.41;95046.83;1728073;80;21110;-82
2021/05/14 00:52:51;;;;;;;7.80;6.65;;;;;;;12.95;81.56;95048.65;1725764;82;21006;-83
2021/05/14 00:55:17;;;;;;;6.62;6.00;;;;;;;12.92;81.43;95047.81;1717387;82;21299;-82
2021/05/14 00:57:43;;;;;;;6.97;6.28;;;;;;;12.89;81.53;95043.84;1726254;80;20943;-82
2021/05/14 01:00:09;;;;;;;6.40;5.70;;;;;;;12.83;81.47;95040.04;1727489;82;20930;-82
2021/05/14 01:02:35;;;;;;;9.78;5.70;;;;;;;12.84;81.64;95044.23;1746671;80;21037;-82
2021/05/14 01:05:01;;;;;;;6.67;5.60;;;;;;;12.81;81.76;95044.18;1744015;80;20977;-82
2021/05/14 01:07:27;;;;;;;6.87;6.03;;;;;;;12.80;81.94;95046.50;1742197;80;21271;-83
2021/05/14 01:09:53;;;;;;;6.50;5.90;;;;;;;12.81;81.96;95043.39;1754204;82;20990;-82
2021/05/14 01:12:19;;;;;;;6.53;5.87;;;;;;;12.83;81.90;95047.34;1737904;80;21026;-82
2021/05/14 01:14:45;;;;;;;6.55;5.85;;;;;;;12.87;81.87;95039.89;1747809;80;20978;-82
2021/05/14 01:17:12;;;;;;;6.55;5.55;;;;;;;12.91;81.83;95043.11;1752437;82;20978;-83
2021/05/14 01:19:37;;;;;;;5.58;4.92;;;;;;;12.96;81.90;95045.02;1754692;82;20970;-83
2021/05/14 01:22:03;;;;;;;5.62;5.12;;;;;;;12.98;81.87;95043.48;1701273;82;21298;-82
2021/05/14 01:24:33;;;;;;;6.95;5.83;;;;;;;12.97;81.77;95050.52;1738509;82;20974;-82
2021/05/14 01:26:59;;;;;;;5.50;5.00;;;;;;;12.97;81.77;95044.00;1731464;80;21322;-82
2021/05/14 01:29:25;;;;;;;5.28;4.78;;;;;;;12.92;81.67;95048.59;1726465;80;20965;-82
2021/05/14 01:31:51;;;;;;;4.33;3.87;;;;;;;12.95;82.14;95042.64;1725193;82;21287;-82
2021/05/14 01:34:17;;;;;;;4.55;4.15;;;;;;;12.91;81.62;95041.02;1725419;80;21022;-83
2021/05/14 01:36:42;;;;;;;5.05;4.55;;;;;;;12.89;81.62;95049.06;1724992;80;21013;-83
2021/05/14 01:39:14;;;;;;;4.90;4.40;;;;;;;12.86;81.64;95046.92;1747058;80;21009;-83
2021/05/14 01:41:40;;;;;;;5.62;5.00;;;;;;;12.82;81.64;95045.77;1743335;82;21021;-83
2021/05/14 01:44:06;;;;;;;6.45;4.62;;;;;;;12.81;81.61;95046.78;1724900;82;21054;-83
2021/05/14 01:46:32;;;;;;;6.50;4.95;;;;;;;12.80;81.69;95049.63;1747399;80;21263;-83
2021/05/14 01:48:58;;;;;;;7.75;5.60;;;;;;;12.76;81.71;95053.20;1741167;82;20978;-83
2021/05/14 01:51:24;;;;;;;9.75;7.40;;;;;;;12.76;81.79;95047.98;1742364;81;21070;-82
2021/05/14 01:53:50;;;;;;;10.98;9.70;;;;;;;12.77;81.69;95049.57;1712698;81;21264;-83
2021/05/14 01:56:16;;;;;;;11.78;9.58;;;;;;;12.69;81.61;95050.41;1712423;81;21042;-83
2021/05/14 01:58:42;;;;;;;11.88;10.58;;;;;;;12.61;81.77;95049.73;1718792;81;21085;-83
2021/05/14 02:01:08;;;;;;;11.55;10.35;;;;;;;12.59;81.76;95050.48;1727921;81;20971;-83
2021/05/14 02:03:37;;;;;;;13.40;11.33;;;;;;;12.63;81.86;95052.12;1691953;82;21025;-83
2021/05/14 02:06:03;;;;;;;13.10;10.75;;;;;;;12.66;81.84;95047.75;1712553;82;21042;-83
2021/05/14 02:08:30;;;;;;;13.45;12.03;;;;;;;12.71;81.80;95049.19;1711477;81;21022;-83
2021/05/14 02:10:57;;;;;;;12.03;10.43;;;;;;;12.71;81.64;95050.48;1734315;82;21336;-83
2021/05/14 02:13:22;;;;;;;13.83;11.18;;;;;;;12.69;81.69;95051.23;1718531;82;20948;-83
2021/05/14 02:15:48;;;;;;;11.18;9.28;;;;;;;12.71;81.75;95053.61;1725531;82;20915;-83
2021/05/14 02:18:14;;;;;;;11.55;10.10;;;;;;;12.70;81.67;95053.33;1711405;81;20971;-83
2021/05/14 02:20:39;;;;;;;10.38;9.28;;;;;;;12.68;81.64;95052.22;1711075;81;21260;-83
2021/05/14 02:23:05;;;;;;;13.30;11.63;;;;;;;12.69;81.67;95049.11;1711980;81;20998;-83
2021/05/14 02:25:31;;;;;;;13.55;11.95;;;;;;;12.69;81.77;95057.75;1711068;81;20967;-83
2021/05/14 02:27:57;;;;;;;13.18;11.57;;;;;;;12.67;81.78;95052.45;1713445;82;21276;-83
2021/05/14 02:30:23;;;;;;;12.95;10.90;;;;;;;12.60;81.85;95054.67;1713560;82;20963;-83
2021/05/14 02:32:49;;;;;;;13.10;11.33;;;;;;;12.55;81.74;95061.08;1735136;81;20955;-83
2021/05/14 02:35:15;;;;;;;14.85;12.70;;;;;;;12.58;81.85;95055.92;1740301;82;20939;-83
2021/05/14 02:37:41;;;;;;;14.73;12.80;;;;;;;12.57;81.80;95055.13;1722105;81;20934;-83
2021/05/14 02:40:08;;;;;;;15.35;12.45;;;;;;;12.52;81.81;95056.30;1711886;81;21304;-83
2021/05/14 02:42:35;;;;;;;13.55;12.07;;;;;;;12.50;81.90;95058.84;1725795;82;21075;-83
2021/05/14 02:45:00;;;;;;;14.98;13.20;;;;;;;12.51;82.03;95061.73;1718305;81;21280;-83
2021/05/14 02:47:27;;;;;;;15.70;13.15;;;;;;;12.47;82.02;95056.19;1732498;81;20939;-82
2021/05/14 02:49:52;;;;;;;14.78;12.20;;;;;;;12.50;82.04;95062.75;1724988;81;20955;-83
2021/05/14 02:52:18;;;;;;;14.03;12.05;;;;;;;12.52;82.00;95060.20;1749294;80;21367;-83
2021/05/14 02:54:44;;;;;;;13.25;10.60;;;;;;;12.55;82.07;95053.77;1754624;82;20931;-83
2021/05/14 02:57:09;;;;;;;15.08;12.60;;;;;;;12.51;82.14;95056.52;1754766;82;20935;-83
2021/05/14 02:59:35;;;;;;;13.88;11.35;;;;;;;12.45;82.11;95060.04;1731246;82;21298;-83
2021/05/14 03:02:01;;;;;;;14.50;11.97;;;;;;;12.38;82.12;95061.46;1739615;81;20990;-83
2021/05/14 03:04:27;;;;;;;13.68;11.57;;;;;;;12.42;82.38;95062.59;1734437;80;20950;-83
2021/05/14 03:06:53;;;;;;;13.03;11.70;;;;;;;12.40;82.15;95067.75;1725837;80;21247;-83
2021/05/14 03:09:19;;;;;;;12.93;11.20;;;;;;;12.38;82.12;95066.67;1725085;82;21036;-84
2021/05/14 03:11:44;;;;;;;12.98;11.45;;;;;;;12.38;82.04;95067.97;1726486;80;21335;-83
2021/05/14 03:14:10;;;;;;;11.95;10.05;;;;;;;12.40;82.16;95070.34;1742510;80;21030;-83
2021/05/14 03:16:36;;;;;;;11.63;10.30;;;;;;;12.38;82.25;95069.78;1732222;80;21053;-83
2021/05/14 03:19:03;;;;;;;11.97;9.78;;;;;;;12.32;82.23;95072.25;1737625;82;21017;-83
2021/05/14 03:21:30;;;;;;;10.80;9.38;;;;;;;12.28;82.15;95072.41;1734579;80;21121;-83
2021/05/14 03:23:58;;;;;;;10.38;9.28;;;;;;;12.28;82.27;95075.02;1725460;80;21113;-83
2021/05/14 03:26:25;;;;;;;12.07;10.35;;;;;;;12.33;82.37;95080.85;1738873;80;20978;-82
2021/05/14 03:28:51;;;;;;;11.73;10.10;;;;;;;12.38;82.30;95076.30;1735907;80;21306;-82
2021/05/14 03:31:16;;;;;;;12.50;10.32;;;;;;;12.40;82.39;95081.56;1721446;82;21017;-82
2021/05/14 03:33:42;;;;;;;14.13;11.75;;;;;;;12.41;82.33;95084.95;1726206;80;20966;-82
2021/05/14 03:36:08;;;;;;;14.83;12.58;;;;;;;12.33;82.19;95090.77;1747047;82;20942;-82
2021/05/14 03:38:34;;;;;;;16.17;12.53;;;;;;;12.31;82.21;95091.50;1727828;80;20954;-82
2021/05/14 03:41:16;;;;;;;15.00;12.15;;;;;;;12.32;82.32;95090.98;1740994;80;20942;-82
2021/05/14 03:43:32;;;;;;;;;;;;;;;12.32;82.20;95097.50;1734714;82;21271;-82
2021/05/14 03:45:57;;;;;;;20.72;16.12;;;;;;;12.31;82.32;95098.52;1741650;80;20200;-82
2021/05/14 03:48:23;;;;;;;20.65;16.48;;;;;;;12.26;82.52;95094.50;1747562;82;20977;-82
2021/05/14 03:50:53;;;;;;;22.62;18.12;;;;;;;12.32;82.53;95108.71;1729107;80;21315;-82
2021/05/14 03:53:19;;;;;;;22.27;17.05;;;;;;;12.29;82.37;95107.06;1721183;82;21026;-82
2021/05/14 03:55:45;;;;;;;23.83;18.23;;;;;;;12.25;82.29;95102.81;1730267;81;20962;-82
2021/05/14 03:58:11;;;;;;;26.75;19.82;;;;;;;12.20;82.30;95104.48;1738532;81;21050;-82
2021/05/14 04:00:37;;;;;;;28.57;20.57;;;;;;;12.19;82.34;95108.10;1737509;81;21046;-82
2021/05/14 04:03:04;;;;;;;24.98;18.60;;;;;;;12.19;82.34;95112.80;1723519;82;20970;-82
2021/05/14 04:05:30;;;;;;;30.08;21.05;;;;;;;12.15;82.42;95120.78;1719884;81;20982;-82
2021/05/14 04:07:57;;;;;;;30.72;21.05;;;;;;;12.11;82.50;95113.64;1719944;81;21026;-82
2021/05/14 04:15:45;;;;;;;25.82;19.30;;;;;;;12.08;82.49;95124.50;1720747;81;21003;-81
2021/05/14 04:18:11;;;;;;;24.75;18.90;;;;;;;12.06;82.59;95122.63;1740713;81;20927;-81
2021/05/14 04:20:37;;;;;;;24.82;19.52;;;;;;;12.09;82.65;95124.79;1740767;82;21320;-81
2021/05/14 04:23:04;;;;;;;24.12;19.57;;;;;;;12.09;82.71;95122.98;1720659;81;21022;-82
2021/05/14 04:25:31;;;;;;;24.27;18.37;;;;;;;12.13;82.80;95122.81;1741636;81;21264;-81
2021/05/14 04:27:58;;;;;;;21.73;16.93;;;;;;;12.15;82.80;95127.80;1739079;81;21046;-81
2021/05/14 04:30:24;;;;;;;23.12;18.07;;;;;;;12.19;82.81;95130.23;1722636;82;21236;-82
2021/05/14 04:32:49;;;;;;;24.27;19.07;;;;;;;12.23;82.77;95127.50;1723037;81;20954;-81
2021/05/14 04:35:15;;;;;;;22.37;18.98;;;;;;;12.24;82.57;95125.18;1736887;81;21311;-81
2021/05/14 04:37:41;;;;;;;27.37;21.68;;;;;;;12.24;82.68;95125.97;1738544;81;20986;-82
2021/05/14 04:40:08;;;;;;;26.25;21.05;;;;;;;12.25;82.60;95130.16;1747107;81;20972;-81
2021/05/14 04:42:33;;;;;;;25.45;19.82;;;;;;;12.26;82.66;95126.54;1748787;82;21033;-81
2021/05/14 04:44:59;;;;;;;27.02;21.45;;;;;;;12.30;82.58;95129.48;1746268;81;21291;-81
2021/05/14 04:47:25;;;;;;;23.35;19.42;;;;;;;12.23;82.28;95132.20;1719857;81;20946;-81
2021/05/14 04:49:51;;;;;;;27.70;20.62;;;;;;;12.19;82.37;95132.84;1734229;82;20939;-82
2021/05/14 04:52:21;;;;;;;27.00;20.82;;;;;;;12.20;82.49;95136.55;1743201;82;21339;-81
2021/05/14 04:54:46;;;;;;;27.20;21.02;;;;;;;12.23;82.63;95140.02;1720715;81;21335;-81
2021/05/14 04:57:13;;;;;;;25.97;20.12;;;;;;;12.23;82.65;95133.50;1726921;81;21067;-81
2021/05/14 04:59:41;;;;;;;25.52;20.00;;;;;;;12.24;82.48;95136.90;1693900;81;20947;-81
2021/05/14 05:02:08;;;;;;;26.48;20.32;;;;;;;12.17;82.53;95136.97;1678470;84;20950;-81
2021/05/14 05:04:36;;;;;;;27.45;20.55;;;;;;;12.13;82.54;95136.34;1713410;81;20995;-81
2021/05/14 05:07:08;;;;;;;28.65;19.48;;;;;;;12.09;82.78;95143.81;1716646;81;20959;-81
2021/05/14 05:09:37;;;;;;;26.50;20.88;;;;;;;12.05;82.81;95134.86;1725688;81;21054;-81
2021/05/14 05:12:03;;;;;;;25.75;20.02;;;;;;;12.00;82.94;95143.81;1723708;81;21321;-81
2021/05/14 05:14:29;;;;;;;26.80;20.20;;;;;;;11.97;83.01;95139.84;1720381;81;21260;-81
2021/05/14 05:16:55;;;;;;;24.47;19.62;;;;;;;11.98;83.05;95144.55;1713636;81;20939;-81
2021/05/14 05:19:21;;;;;;;27.37;21.15;;;;;;;11.95;82.95;95146.30;1723037;81;21038;-81
2021/05/14 05:21:50;;;;;;;24.98;19.92;;;;;;;11.95;83.23;95144.48;1720738;81;21006;-81
2021/05/14 05:24:16;;;;;;;27.70;21.20;;;;;;;11.95;83.20;95149.69;1711962;81;21321;-81
2021/05/14 05:26:41;;;;;;;32.10;25.52;;;;;;;11.94;83.21;95153.31;1714704;82;20979;-81
2021/05/14 05:29:08;;;;;;;38.80;34.60;;;;;;;11.91;83.16;95155.56;1704515;81;21031;-81
2021/05/14 05:31:34;;;;;;;33.05;26.97;;;;;;;11.96;83.33;95161.69;1732424;81;21261;-81
2021/05/14 05:33:59;;;;;;;30.35;25.05;;;;;;;11.98;83.19;95156.27;1728854;81;20947;-81
2021/05/14 05:36:25;;;;;;;29.70;23.07;;;;;;;11.95;83.16;95160.61;1737199;81;20944;-82
2021/05/14 05:38:51;;;;;;;31.00;22.20;;;;;;;11.93;83.32;95162.13;1713072;81;21018;-81
2021/05/14 05:41:17;;;;;;;29.00;20.95;;;;;;;11.93;83.25;95161.34;1711463;81;20963;-81
2021/05/14 05:43:44;;;;;;;25.90;19.50;;;;;;;11.93;83.29;95164.73;1713648;81;21406;-81
2021/05/14 05:46:10;;;;;;;26.93;19.98;;;;;;;11.97;83.24;95169.78;1711599;81;20966;-81
2021/05/14 05:48:36;;;;;;;25.17;19.45;;;;;;;12.03;83.24;95174.61;1731013;81;20994;-81
2021/05/14 05:51:02;;;;;;;25.68;20.35;;;;;;;12.05;83.20;95176.52;1733841;81;20991;-81
2021/05/14 05:53:27;;;;;;;26.33;19.87;;;;;;;12.09;83.31;95177.66;1691981;82;21078;-81
2021/05/14 05:55:53;;;;;;;26.65;19.40;;;;;;;12.15;83.26;95179.37;1712025;81;20967;-81
2021/05/14 05:58:19;;;;;;;29.63;20.32;;;;;;;12.18;83.17;95182.83;1732957;80;20971;-81
2021/05/14 06:00:47;;;;;;;29.45;20.43;;;;;;;12.22;83.16;95184.00;1711768;81;21279;-81
2021/05/14 06:03:13;;;;;;;42.98;38.25;;;;;;;12.24;82.83;95187.68;1715411;81;20982;-82
2021/05/14 06:05:39;;;;;;;39.48;35.38;;;;;;;12.17;82.65;95184.36;1712351;81;20966;-81
2021/05/14 06:08:06;;;;;;;32.90;27.58;;;;;;;12.11;82.77;95189.94;1711903;81;20954;-81
2021/05/14 06:10:31;;;;;;;29.82;22.15;;;;;;;12.10;83.00;95190.95;1730429;82;21264;-81
2021/05/14 06:12:57;;;;;;;28.85;20.05;;;;;;;12.14;83.03;95193.91;1718338;81;21010;-81
2021/05/14 06:15:23;;;;;;;30.32;20.43;;;;;;;12.17;83.01;95199.98;1741156;82;20953;-81
2021/05/14 06:17:50;;;;;;;28.07;21.20;;;;;;;12.18;82.93;95197.66;1722784;81;21110;-81
2021/05/14 06:20:18;;;;;;;27.50;21.48;;;;;;;12.16;82.82;95197.88;1734667;81;21328;-81
2021/05/14 06:22:43;;;;;;;24.37;19.05;;;;;;;12.18;82.93;95206.27;1738695;81;21014;-81
2021/05/14 06:25:10;;;;;;;26.82;20.30;;;;;;;12.17;82.92;95206.48;1738505;81;21083;-81
2021/05/14 06:27:36;;;;;;;30.08;20.88;;;;;;;12.18;82.97;95211.98;1715505;81;20982;-81
2021/05/14 06:30:04;;;;;;;24.92;18.87;;;;;;;12.18;82.85;95208.87;1712395;81;20994;-81
2021/05/14 06:32:30;;;;;;;24.30;19.30;;;;;;;12.16;82.92;95210.11;1712327;81;20958;-81
2021/05/14 06:34:59;;;;;;;28.60;19.62;;;;;;;12.14;82.79;95216.84;1711689;82;21029;-81
2021/05/14 06:37:25;;;;;;;26.12;18.15;;;;;;;12.14;83.02;95219.44;1728182;82;21335;-81
2021/05/14 06:39:51;;;;;;;28.07;19.90;;;;;;;12.13;83.13;95223.06;1717880;81;20978;-81
2021/05/14 06:42:16;;;;;;;27.42;18.62;;;;;;;12.14;83.03;95227.77;1739489;82;20959;-81
2021/05/14 06:44:42;;;;;;;26.07;18.77;;;;;;;12.11;82.95;95229.51;1721955;81;21300;-81
2021/05/14 06:47:08;;;;;;;27.98;19.82;;;;;;;12.09;83.04;95228.94;1711092;81;20947;-81
2021/05/14 06:49:34;;;;;;;26.55;19.92;;;;;;;12.03;83.08;95228.78;1718016;81;20943;-81
2021/05/14 06:51:59;;;;;;;30.62;20.95;;;;;;;11.99;83.20;95232.05;1722720;81;21057;-81
2021/05/14 06:54:25;;;;;;;30.75;21.00;;;;;;;11.98;83.46;95232.55;1725454;80;20966;-82
2021/05/14 06:56:51;;;;;;;25.62;18.15;;;;;;;12.01;83.50;95236.52;1742610;82;20946;-81
2021/05/14 06:59:18;;;;;;;21.87;17.15;;;;;;;12.04;83.65;95237.41;1730921;80;20974;-81
2021/05/14 07:01:44;;;;;;;22.15;16.62;;;;;;;12.05;83.52;95242.11;1737184;80;21025;-81
2021/05/14 07:04:10;;;;;;;19.00;16.70;;;;;;;12.06;84.44;95237.19;1754007;82;20970;-81
2021/05/14 07:06:36;;;;;;;20.70;15.98;;;;;;;12.02;83.51;95245.41;1732934;80;20954;-81
2021/05/14 07:09:03;;;;;;;18.37;13.45;;;;;;;12.05;83.83;95243.41;1754795;81;20963;-81
2021/05/14 07:11:28;;;;;;;18.10;14.03;;;;;;;12.02;83.70;95236.81;1727799;80;20946;-81
2021/05/14 07:13:54;;;;;;;18.77;12.78;;;;;;;11.99;83.91;95245.85;1725939;80;21223;-81
2021/05/14 07:16:20;;;;;;;16.25;13.00;;;;;;;11.96;83.97;95246.80;1746321;80;20946;-81
2021/05/14 07:18:46;;;;;;;15.55;12.28;;;;;;;11.97;84.03;95246.58;1747310;82;21082;-81
2021/05/14 07:21:12;;;;;;;12.45;10.60;;;;;;;12.01;83.88;95256.05;1739590;80;21295;-81
2021/05/14 07:23:38;;;;;;;13.18;10.05;;;;;;;12.04;83.91;95256.94;1733972;80;21053;-81
2021/05/14 07:26:03;;;;;;;14.38;11.55;;;;;;;12.05;83.75;95252.02;1746022;82;21010;-81
2021/05/14 07:28:29;;;;;;;13.98;11.15;;;;;;;12.10;83.98;95258.66;1725949;80;21271;-81
2021/05/14 07:30:55;;;;;;;12.53;9.58;;;;;;;12.11;84.03;95262.05;1725237;80;21061;-81
2021/05/14 07:33:21;;;;;;;14.60;11.05;;;;;;;12.13;84.06;95260.82;1736847;82;21315;-81
2021/05/14 07:35:47;;;;;;;13.40;10.50;;;;;;;12.12;83.93;95267.55;1735166;80;20958;-81
2021/05/14 07:38:13;;;;;;;13.75;10.32;;;;;;;12.11;83.87;95263.36;1726424;80;20978;-81
2021/05/14 07:40:39;;;;;;;13.08;10.15;;;;;;;12.12;84.04;95274.06;1740642;82;20910;-81
2021/05/14 07:43:05;;;;;;;15.28;11.95;;;;;;;12.15;84.00;95278.32;1734186;80;21002;-81
2021/05/14 07:45:30;;;;;;;16.30;11.30;;;;;;;12.20;84.14;95274.58;1732570;80;20943;-81
2021/05/14 07:47:56;;;;;;;16.02;12.55;;;;;;;12.21;84.17;95279.28;1755393;81;21355;-81
2021/05/14 07:50:22;;;;;;;15.10;12.37;;;;;;;12.21;84.23;95280.07;1729564;80;21342;-81
2021/05/14 07:52:49;;;;;;;14.83;11.30;;;;;;;12.20;83.85;95279.78;1728948;82;21093;-81
2021/05/14 07:55:15;;;;;;;16.77;12.23;;;;;;;12.19;83.93;95276.86;1723024;82;20975;-81
2021/05/14 07:57:40;;;;;;;16.95;13.62;;;;;;;12.19;83.94;95282.07;1716481;81;20966;-81
2021/05/14 08:00:07;;;;;;;13.48;11.65;;;;;;;12.19;84.04;95282.07;1740205;81;21042;-81
2021/05/14 08:02:33;;;;;;;16.90;12.35;;;;;;;12.22;84.34;95284.27;1718497;81;20947;-81
2021/05/14 08:04:58;;;;;;;17.25;13.38;;;;;;;12.23;84.26;95291.57;1720744;81;21276;-81
2021/05/14 08:07:24;;;;;;;16.42;12.07;;;;;;;12.25;84.25;95286.42;1713067;81;21054;-81
2021/05/14 08:09:50;;;;;;;16.02;12.37;;;;;;;12.33;84.34;95291.33;1716863;82;21026;-81
2021/05/14 08:12:16;;;;;;;16.27;12.73;;;;;;;12.42;84.33;95293.64;1724337;81;21382;-81
2021/05/14 08:14:42;;;;;;;16.35;12.10;;;;;;;12.47;84.11;95290.66;1732638;81;21073;-81
2021/05/14 08:17:07;;;;;;;15.28;10.35;;;;;;;12.48;83.96;95293.55;1719158;82;21339;-81
2021/05/14 08:19:33;;;;;;;14.85;10.72;;;;;;;12.44;83.71;95300.22;1723835;82;21006;-81
2021/05/14 08:21:59;;;;;;;15.93;11.45;;;;;;;12.37;83.69;95301.33;1712473;81;21074;-81
2021/05/14 08:24:25;;;;;;;12.73;9.65;;;;;;;12.32;83.65;95301.45;1720698;82;21390;-81
2021/05/14 08:26:50;;;;;;;11.70;9.65;;;;;;;12.32;83.74;95306.66;1702951;82;21058;-81
2021/05/14 08:29:16;;;;;;;16.95;10.63;;;;;;;12.27;83.84;95310.95;1714698;82;20971;-81
2021/05/14 08:31:42;;;;;;;15.18;10.08;;;;;;;12.28;84.09;95308.13;1711384;81;20962;-81
2021/05/14 08:34:08;;;;;;;13.45;9.13;;;;;;;12.26;84.18;95319.27;1712720;82;20959;-81
2021/05/14 08:36:34;;;;;;;13.78;8.70;;;;;;;12.28;84.37;95315.94;1732247;81;20931;-81
2021/05/14 08:39:00;;;;;;;14.90;9.43;;;;;;;12.29;83.98;95318.03;1712726;81;21287;-81
2021/05/14 08:41:26;;;;;;;11.97;8.05;;;;;;;12.30;84.16;95315.20;1734573;81;20987;-81
2021/05/14 08:43:52;;;;;;;11.38;8.40;;;;;;;12.36;84.06;95316.64;1737594;81;21023;-82
2021/05/14 08:46:19;;;;;;;9.45;7.30;;;;;;;12.40;84.38;95317.31;1720399;82;21264;-81
2021/05/14 08:48:45;;;;;;;14.70;8.58;;;;;;;12.45;84.30;95317.44;1717085;82;20939;-81
2021/05/14 08:51:12;;;;;;;9.85;7.80;;;;;;;12.46;84.45;95320.84;1711756;81;20954;-81
2021/05/14 08:53:42;;;;;;;10.70;7.95;;;;;;;12.47;84.40;95320.63;1728193;82;21176;-80
2021/05/14 08:56:07;;;;;;;8.18;6.58;;;;;;;12.50;84.15;95322.78;1715604;81;20978;-81
2021/05/14 08:58:33;;;;;;;8.90;6.25;;;;;;;12.54;84.28;95323.16;1712685;82;20998;-81
2021/05/14 09:00:59;;;;;;;10.40;6.70;;;;;;;12.55;84.10;95326.85;1732028;81;21284;-81
2021/05/14 09:03:25;;;;;;;9.08;6.80;;;;;;;12.56;84.07;95328.95;1712824;81;20975;-82
2021/05/14 09:05:50;;;;;;;8.35;6.67;;;;;;;12.54;84.14;95331.78;1726073;82;20947;-81
2021/05/14 09:08:32;;;;;;;7.62;6.28;;;;;;;12.55;84.01;95338.58;1697124;81;21002;-81
2021/05/14 09:10:58;;;;;;;8.33;6.87;;;;;;;12.61;84.15;95340.30;1708353;82;20983;-81
2021/05/14 09:13:37;;;;;;;9.78;7.10;;;;;;;12.65;83.96;95343.25;1711720;81;20970;-80
2021/05/14 09:16:04;;;;;;;11.55;7.42;;;;;;;12.67;84.07;95346.94;1712486;81;20991;-81
2021/05/14 09:18:30;;;;;;;8.60;7.00;;;;;;;12.65;83.76;95347.16;1732780;81;20931;-81
2021/05/14 09:20:59;;;;;;;12.98;8.15;;;;;;;12.60;83.65;95357.45;1723286;82;21071;-81
2021/05/14 09:23:35;;;;;;;10.48;7.85;;;;;;;12.53;83.61;95356.24;1721591;82;21036;-81
2021/05/14 09:26:12;;;;;;;9.93;8.35;;;;;;;12.53;84.13;95360.16;1719234;81;21021;-80
2021/05/14 09:28:43;;;;;;;7.42;6.47;;;;;;;12.58;84.41;95361.58;1740177;81;21283;-81
2021/05/14 09:31:15;;;;;;;10.63;7.40;;;;;;;12.66;84.14;95358.38;1737152;81;21268;-81
2021/05/14 09:33:51;;;;;;;9.03;7.62;;;;;;;12.61;83.72;95362.45;1711728;82;20960;-81
2021/05/14 09:36:22;;;;;;;11.78;7.78;;;;;;;12.65;83.96;95364.61;1711412;81;20955;-81
2021/05/14 09:39:00;;;;;;;9.55;7.45;;;;;;;12.64;83.94;95369.03;1718493;80;20974;-81
2021/05/14 09:41:36;;;;;;;10.63;7.40;;;;;;;12.65;83.99;95372.42;1723185;81;21038;-81
2021/05/14 09:44:16;;;;;;;8.40;6.50;;;;;;;12.61;83.85;95371.56;1719161;81;20947;-81
2021/05/14 09:46:46;;;;;;;9.65;6.50;;;;;;;12.63;83.75;95375.25;1721771;81;21315;-81
2021/05/14 09:49:17;;;;;;;7.58;5.87;;;;;;;12.63;83.77;95375.25;1716229;81;20983;-81
2021/05/14 09:51:55;;;;;;;7.95;6.20;;;;;;;12.70;84.04;95381.20;1725747;81;21054;-81
2021/05/14 09:54:35;;;;;;;9.95;7.20;;;;;;;12.72;83.91;95382.28;1720640;81;21044;-81
2021/05/14 09:57:19;;;;;;;10.25;6.42;;;;;;;12.76;84.23;95385.53;1733530;81;20986;-81
2021/05/14 09:59:47;;;;;;;12.43;9.48;;;;;;;12.81;84.47;95377.84;1739898;81;20978;-81
2021/05/14 10:02:29;;;;;;;12.65;9.58;;;;;;;12.82;83.95;95385.15;1719139;82;21010;-81
2021/05/14 10:04:55;;;;;;;19.12;12.53;;;;;;;12.78;83.40;95385.30;1719283;81;20931;-81
2021/05/14 10:07:26;;;;;;;19.85;14.28;;;;;;;12.73;83.50;95385.17;1702373;82;20986;-81
2021/05/14 10:09:55;;;;;;;20.12;13.80;;;;;;;12.73;83.57;95385.97;1747001;81;21319;-81
2021/05/14 10:12:20;;;;;;;19.85;14.03;;;;;;;12.75;83.58;95383.14;1732042;81;21082;-81
2021/05/14 10:14:46;;;;;;;17.02;12.40;;;;;;;12.75;83.75;95388.36;1722080;81;21371;-81
2021/05/14 10:17:12;;;;;;;15.43;12.28;;;;;;;12.73;83.40;95385.17;1728098;82;21066;-81
2021/05/14 10:19:38;;;;;;;16.10;12.35;;;;;;;12.72;83.54;95386.98;1731437;81;20962;-82
2021/05/14 10:22:04;;;;;;;14.73;12.28;;;;;;;12.71;83.64;95389.81;1720821;81;21272;-81
2021/05/14 10:24:46;;;;;;;15.28;11.10;;;;;;;12.69;83.52;95389.21;1719441;82;21050;-81
2021/05/14 10:27:28;;;;;;;16.52;11.73;;;;;;;12.71;83.93;95391.91;1720474;81;20998;-81
2021/05/14 10:29:57;;;;;;;14.58;10.38;;;;;;;12.71;83.58;95389.81;1720073;81;20997;-81
2021/05/14 10:32:48;;;;;;;13.28;10.45;;;;;;;12.75;83.73;95390.97;1721659;81;21018;-81
2021/05/14 10:35:23;;;;;;;15.38;11.60;;;;;;;12.81;83.88;95388.77;1748913;81;20947;-81
2021/05/14 10:38:03;;;;;;;16.57;11.85;;;;;;;12.84;83.94;95392.23;1727768;82;20939;-81
2021/05/14 10:40:36;;;;;;;14.90;11.78;;;;;;;12.86;83.96;95396.25;1732304;82;20938;-81
2021/05/14 10:43:07;;;;;;;14.20;10.70;;;;;;;12.88;83.92;95396.02;1719752;81;20946;-82
2021/05/14 10:45:40;;;;;;;14.78;10.15;;;;;;;12.89;83.96;95406.23;1732582;81;20951;-81
2021/05/14 10:48:22;;;;;;;14.68;10.43;;;;;;;12.85;83.57;95408.99;1727617;81;20978;-81
2021/05/14 10:50:59;;;;;;;13.15;9.65;;;;;;;12.79;83.38;95415.57;1719023;82;20986;-81
2021/05/14 10:53:38;;;;;;;13.22;9.28;;;;;;;12.76;83.35;95412.10;1721840;80;21094;-81
2021/05/14 10:56:21;;;;;;;13.22;10.00;;;;;;;12.65;83.18;95418.83;1724974;82;20950;-81
2021/05/14 10:58:51;;;;;;;13.38;10.00;;;;;;;12.58;83.43;95422.03;1726595;80;20971;-81
2021/05/14 11:01:34;;;;;;;12.35;9.33;;;;;;;12.56;83.75;95420.15;1754466;80;20997;-81
2021/05/14 11:04:16;;;;;;;11.97;9.25;;;;;;;12.52;83.74;95422.38;1732389;80;20970;-82
2021/05/14 11:06:48;;;;;;;9.63;8.03;;;;;;;12.52;83.78;95427.58;1737437;82;21014;-81
2021/05/14 11:09:15;;;;;;;10.82;7.92;;;;;;;12.56;84.16;95429.27;1731939;82;20978;-82
2021/05/14 11:12:03;;;;;;;11.22;7.83;;;;;;;12.56;83.88;95430.06;1726295;80;20997;-82
2021/05/14 11:14:48;;;;;;;13.45;9.98;;;;;;;12.54;83.92;95433.40;1712871;82;20950;-81
2021/05/14 11:17:17;;;;;;;11.75;9.35;;;;;;;12.48;83.88;95438.16;1728727;80;21256;-81
2021/05/14 11:19:51;;;;;;;12.80;9.55;;;;;;;12.49;84.14;95437.14;1725102;82;20950;-81
2021/05/14 11:22:24;;;;;;;12.53;9.35;;;;;;;12.52;84.18;95443.22;1728021;80;21294;-81
2021/05/14 11:25:05;;;;;;;12.90;8.13;;;;;;;12.60;84.23;95443.45;1741789;80;21387;-81
2021/05/14 11:27:34;;;;;;;9.95;7.45;;;;;;;12.66;84.04;95448.30;1727701;80;20986;-81
2021/05/14 11:30:02;;;;;;;10.03;7.87;;;;;;;12.68;83.76;95452.27;1743413;80;20970;-81